createdAt,value
2023-05-08T00:03:43.160Z,90.19
2023-05-08T00:13:51.077Z,90.82
2023-05-08T00:23:53.203Z,89.83
2023-05-08T00:33:55.070Z,90.91
2023-05-08T00:43:56.955Z,90.14
2023-05-08T00:54:00.227Z,90.21
2023-05-08T01:04:03.915Z,90.45
2023-05-08T01:15:00.236Z,90.23
2023-05-08T01:25:17.100Z,90.36
2023-05-08T01:35:37.010Z,89.74
2023-05-08T01:45:41.914Z,90.27
2023-05-08T01:55:44.815Z,90.33
2023-05-08T02:05:49.207Z,90.50
2023-05-08T02:15:55.190Z,89.62
2023-05-08T02:25:57.961Z,89.83
2023-05-08T02:36:02.721Z,89.59
2023-05-08T02:46:14.309Z,88.97
2023-05-08T02:56:33.125Z,89.30
2023-05-08T03:06:45.368Z,90.05
2023-05-08T03:16:50.756Z,89.84
2023-05-08T03:26:52.910Z,90.59
2023-05-08T03:36:55.742Z,90.99
2023-05-08T03:46:58.762Z,90.30
2023-05-08T03:57:01.122Z,89.96
2023-05-08T04:07:31.994Z,90.15
2023-05-08T04:17:42.971Z,89.59
2023-05-08T04:27:46.614Z,80.87
2023-05-08T04:37:48.652Z,77.36
2023-05-08T04:47:50.787Z,70.63
2023-05-08T04:57:52.823Z,69.01
2023-05-08T05:07:54.810Z,66.96
2023-05-08T05:17:57.841Z,66.10
2023-05-08T05:28:02.675Z,60.11
2023-05-08T05:38:05.825Z,56.49
2023-05-08T05:48:08.062Z,54.71
2023-05-08T05:58:10.131Z,57.83
2023-05-08T06:08:12.369Z,58.17
2023-05-08T06:18:14.475Z,52.09
2023-05-08T06:28:16.546Z,51.68
2023-05-08T06:38:19.297Z,50.07
2023-05-08T06:48:29.534Z,47.48
2023-05-08T06:58:39.619Z,47.07
2023-05-08T07:08:57.059Z,45.82
2023-05-08T07:19:00.067Z,44.17
2023-05-08T07:29:04.076Z,46.51
2023-05-08T07:39:11.187Z,44.32
2023-05-08T07:49:14.235Z,44.07
2023-05-08T07:59:23.399Z,47.90
2023-05-08T08:09:31.491Z,44.99
2023-05-08T08:19:47.523Z,47.50
2023-05-08T08:30:12.884Z,44.35
2023-05-08T08:40:18.792Z,42.85
2023-05-08T08:50:22.963Z,39.98
2023-05-08T09:00:31.115Z,42.48
2023-05-08T09:10:39.897Z,45.74
2023-05-08T09:20:45.012Z,45.14
2023-05-08T09:30:52.015Z,43.61
2023-05-08T09:41:19.941Z,41.63
2023-05-08T09:51:22.565Z,39.60
2023-05-08T10:01:32.151Z,39.80
2023-05-08T10:11:58.839Z,37.42
2023-05-08T10:22:02.629Z,36.45
2023-05-08T10:32:20.513Z,35.77
2023-05-08T10:42:22.494Z,36.23
2023-05-08T10:52:50.808Z,39.21
2023-05-08T11:02:52.944Z,38.78
2023-05-08T11:12:55.329Z,34.74
2023-05-08T11:23:27.581Z,37.74
2023-05-08T11:33:41.300Z,35.13
2023-05-08T11:43:55.123Z,38.62
2023-05-08T11:54:01.407Z,36.52
2023-05-08T12:04:13.676Z,37.34
2023-05-08T12:14:18.308Z,36.01
2023-05-08T12:24:23.648Z,35.23
2023-05-08T12:34:40.017Z,36.67
2023-05-08T12:44:51.564Z,36.25
2023-05-08T12:54:54.233Z,34.38
2023-05-08T13:04:56.492Z,34.77
2023-05-08T13:15:26.416Z,34.32
2023-05-08T13:25:29.027Z,34.98
2023-05-08T13:35:31.675Z,35.47
2023-05-08T13:45:33.653Z,35.15
2023-05-08T13:55:36.930Z,37.79
2023-05-08T14:05:48.997Z,34.33
2023-05-08T14:15:51.189Z,34.67
2023-05-08T14:25:53.349Z,34.46
2023-05-08T14:36:19.293Z,34.26
2023-05-08T14:46:21.311Z,34.10
2023-05-08T14:56:26.541Z,33.88
2023-05-08T15:06:28.931Z,34.01
2023-05-08T15:16:55.544Z,33.96
2023-05-08T15:26:59.536Z,34.79
2023-05-08T15:37:20.632Z,32.98
2023-05-08T15:47:23.519Z,34.10
2023-05-08T15:57:27.342Z,33.88
2023-05-08T16:07:35.265Z,34.78
2023-05-08T16:18:03.171Z,35.21
2023-05-08T16:28:05.195Z,34.26
2023-05-08T16:38:11.245Z,35.32
2023-05-08T16:48:13.540Z,35.39
2023-05-08T16:58:18.517Z,35.13
2023-05-08T17:08:22.511Z,35.15
2023-05-08T17:18:28.376Z,34.98
2023-05-08T17:28:30.361Z,36.03
2023-05-08T17:38:36.553Z,37.54
2023-05-08T17:48:42.547Z,38.41
2023-05-08T17:58:45.580Z,39.43
2023-05-08T18:08:48.053Z,40.71
2023-05-08T18:18:50.447Z,42.54
2023-05-08T18:28:52.391Z,47.64
2023-05-08T18:39:26.354Z,54.57
2023-05-08T18:49:28.288Z,58.15
2023-05-08T18:59:30.243Z,65.03
2023-05-08T19:09:33.857Z,71.45
2023-05-08T19:19:37.243Z,72.97
2023-05-08T19:29:47.273Z,75.75
2023-05-08T19:39:49.482Z,76.27
2023-05-08T19:49:51.566Z,79.81
2023-05-08T20:00:16.572Z,79.01
2023-05-08T20:10:18.657Z,79.94
2023-05-08T20:20:22.212Z,77.68
2023-05-08T20:30:24.244Z,78.41
2023-05-08T20:40:37.009Z,78.39
2023-05-08T20:50:42.183Z,82.59
2023-05-08T21:00:51.133Z,82.14
2023-05-08T21:11:04.445Z,83.02
2023-05-08T21:21:17.723Z,84.83
2023-05-08T21:31:23.991Z,83.77
2023-05-08T21:41:28.969Z,85.61
2023-05-08T21:51:33.284Z,85.57
2023-05-08T22:01:35.374Z,85.37
2023-05-08T22:11:37.442Z,86.25
2023-05-08T22:21:39.348Z,87.78
2023-05-08T22:31:41.354Z,88.15
2023-05-08T22:41:43.673Z,87.82
2023-05-08T22:51:46.725Z,88.29
2023-05-08T23:01:51.264Z,86.83
2023-05-08T23:12:03.247Z,87.21
2023-05-08T23:22:05.195Z,86.43
2023-05-08T23:32:07.163Z,87.65
2023-05-08T23:42:11.543Z,87.96
2023-05-08T23:52:13.938Z,87.35
